createdAt,value
2023-01-18T00:00:04.284Z,70.43
2023-01-18T00:01:04.431Z,70.95
2023-01-18T00:02:04.566Z,70.12
2023-01-18T00:03:04.741Z,69.19
2023-01-18T00:04:04.900Z,68.56
2023-01-18T00:05:05.176Z,68.56
2023-01-18T00:06:05.271Z,68.77
2023-01-18T00:07:05.464Z,69.40
2023-01-18T00:08:05.619Z,68.98
2023-01-18T00:09:05.779Z,70.33
2023-01-18T00:10:05.983Z,69.92
2023-01-18T00:11:06.130Z,69.81
2023-01-18T00:12:06.310Z,69.40
2023-01-18T00:13:06.503Z,69.40
2023-01-18T00:14:06.686Z,69.81
2023-01-18T00:15:06.888Z,69.81
2023-01-18T00:16:07.097Z,70.02
2023-01-18T00:17:07.216Z,69.92
2023-01-18T00:18:07.404Z,70.02
2023-01-18T00:19:07.606Z,70.85
2023-01-18T00:20:07.775Z,70.23
2023-01-18T00:21:07.957Z,70.33
2023-01-18T00:22:08.108Z,70.12
2023-01-18T00:23:08.299Z,69.71
2023-01-18T00:24:08.438Z,69.92
2023-01-18T00:25:08.628Z,70.75
2023-01-18T00:26:08.843Z,70.64
2023-01-18T00:27:08.987Z,70.54
2023-01-18T00:28:09.149Z,70.85
2023-01-18T00:29:09.337Z,71.48
2023-01-18T00:30:09.552Z,70.64
2023-01-18T00:31:09.706Z,71.17
2023-01-18T00:32:09.886Z,71.17
2023-01-18T00:33:10.108Z,70.75
2023-01-18T00:34:10.253Z,71.58
2023-01-18T00:35:10.455Z,71.06
2023-01-18T00:36:10.618Z,70.12
2023-01-18T00:37:10.807Z,70.54
2023-01-18T00:38:10.992Z,70.43
2023-01-18T00:39:11.161Z,70.54
2023-01-18T00:40:11.315Z,70.09
2023-01-18T00:41:11.479Z,69.68
2023-01-18T00:42:11.630Z,69.37
2023-01-18T00:43:11.823Z,69.37
2023-01-18T00:44:12.005Z,69.15
2023-01-18T00:45:12.212Z,70.20
2023-01-18T00:46:12.418Z,70.30
2023-01-18T00:47:12.544Z,70.72
2023-01-18T00:48:12.723Z,71.23
2023-01-18T00:49:12.921Z,71.55
2023-01-18T00:50:13.084Z,72.28
2023-01-18T00:51:13.243Z,72.28
2023-01-18T00:52:13.454Z,72.80
2023-01-18T00:53:13.622Z,72.49
2023-01-18T00:54:13.777Z,71.44
2023-01-18T00:55:14.009Z,70.92
2023-01-18T00:56:14.129Z,71.65
2023-01-18T00:57:14.291Z,70.82
2023-01-18T00:58:14.459Z,69.99
2023-01-18T00:59:14.604Z,70.30
2023-01-18T01:00:14.815Z,70.82
2023-01-18T01:01:15.032Z,71.34
2023-01-18T01:02:15.184Z,71.13
2023-01-18T01:03:15.309Z,70.61
2023-01-18T01:04:15.491Z,71.65
2023-01-18T01:05:15.701Z,71.65
2023-01-18T01:06:15.866Z,71.65
2023-01-18T01:07:16.021Z,71.10
2023-01-18T01:08:16.171Z,70.58
2023-01-18T01:09:16.387Z,70.37
2023-01-18T01:10:16.540Z,70.58
2023-01-18T01:11:16.704Z,70.79
2023-01-18T01:12:16.862Z,70.89
2023-01-18T01:13:17.027Z,70.06
2023-01-18T01:14:17.170Z,69.96
2023-01-18T01:15:17.390Z,69.64
2023-01-18T01:16:17.582Z,69.64
2023-01-18T01:17:17.720Z,69.74
2023-01-18T01:18:17.909Z,69.43
2023-01-18T01:19:18.117Z,69.54
2023-01-18T01:20:18.270Z,69.33
2023-01-18T01:21:18.428Z,70.06
2023-01-18T01:22:18.585Z,69.96
2023-01-18T01:23:18.768Z,69.64
2023-01-18T01:24:18.962Z,69.54
2023-01-18T01:25:19.138Z,69.54
2023-01-18T01:26:19.311Z,68.81
2023-01-18T01:27:19.487Z,68.71
2023-01-18T01:28:19.637Z,69.12
2023-01-18T01:29:19.847Z,69.23
2023-01-18T01:30:20.032Z,69.33
2023-01-18T01:31:20.184Z,69.23
2023-01-18T01:32:20.381Z,68.91
2023-01-18T01:33:20.539Z,68.91
2023-01-18T01:34:20.724Z,70.23
2023-01-18T01:35:20.952Z,70.03
2023-01-18T01:36:21.095Z,69.20
2023-01-18T01:37:21.279Z,69.40
2023-01-18T01:38:21.438Z,69.30
2023-01-18T01:39:21.596Z,69.09
2023-01-18T01:40:21.772Z,68.78
2023-01-18T01:41:21.974Z,68.68
2023-01-18T01:42:22.093Z,69.20
2023-01-18T01:43:22.247Z,69.09
2023-01-18T01:44:22.425Z,68.78
2023-01-18T01:45:22.657Z,68.47
2023-01-18T01:46:22.816Z,68.16
2023-01-18T01:47:22.961Z,68.88
2023-01-18T01:48:23.152Z,68.68
2023-01-18T01:49:23.304Z,68.57
2023-01-18T01:50:23.503Z,68.57
2023-01-18T01:51:23.674Z,68.47
2023-01-18T01:52:23.852Z,68.37
2023-01-18T01:53:24.044Z,68.16
2023-01-18T01:54:24.215Z,68.26
2023-01-18T01:55:24.391Z,68.05
2023-01-18T01:56:24.542Z,68.57
2023-01-18T01:57:24.741Z,68.26
2023-01-18T01:58:24.900Z,68.16
2023-01-18T01:59:25.086Z,68.16
2023-01-18T02:00:25.236Z,67.95
2023-01-18T02:01:25.479Z,68.16
2023-01-18T02:02:25.597Z,69.61
2023-01-18T02:03:25.742Z,69.71
2023-01-18T02:04:25.922Z,68.99
2023-01-18T02:05:26.144Z,69.20
2023-01-18T02:06:26.295Z,69.20
2023-01-18T02:07:26.500Z,69.71
2023-01-18T02:08:26.683Z,70.03
2023-01-18T02:09:26.840Z,69.71
2023-01-18T02:10:27.010Z,69.30
2023-01-18T02:11:27.161Z,69.61
2023-01-18T02:12:27.350Z,69.06
2023-01-18T02:13:27.535Z,68.96
2023-01-18T02:14:27.753Z,68.75
2023-01-18T02:15:27.942Z,69.58
2023-01-18T02:16:28.102Z,69.17
2023-01-18T02:17:28.238Z,68.96
2023-01-18T02:18:28.423Z,69.17
2023-01-18T02:19:28.631Z,68.65
2023-01-18T02:20:28.776Z,68.54
2023-01-18T02:21:28.962Z,68.54
2023-01-18T02:22:29.109Z,68.54
2023-01-18T02:23:29.296Z,68.51
2023-01-18T02:24:29.441Z,68.41
2023-01-18T02:25:29.644Z,68.93
2023-01-18T02:26:29.809Z,68.62
2023-01-18T02:27:29.965Z,69.34
2023-01-18T02:28:30.150Z,68.93
2023-01-18T02:29:30.351Z,68.62
2023-01-18T02:30:30.557Z,68.62
2023-01-18T02:31:30.718Z,68.30
2023-01-18T02:32:30.874Z,68.41
2023-01-18T02:33:31.066Z,68.30
2023-01-18T02:34:31.218Z,68.72
2023-01-18T02:35:31.419Z,68.72
2023-01-18T02:36:31.587Z,68.20
2023-01-18T02:37:31.740Z,68.20
2023-01-18T02:38:31.937Z,68.20
2023-01-18T02:39:32.099Z,67.89
2023-01-18T02:40:32.264Z,68.20
2023-01-18T02:41:32.469Z,68.30
2023-01-18T02:42:32.606Z,68.30
2023-01-18T02:43:32.806Z,68.10
2023-01-18T02:44:32.955Z,68.10
2023-01-18T02:45:35.753Z,68.82
2023-01-18T02:46:33.340Z,69.76
2023-01-18T02:47:33.492Z,69.03
2023-01-18T02:48:33.697Z,68.62
2023-01-18T02:49:33.844Z,68.41
2023-01-18T02:50:34.008Z,68.20
2023-01-18T02:51:34.200Z,68.93
2023-01-18T02:52:34.344Z,68.93
2023-01-18T02:53:34.547Z,68.82
2023-01-18T02:54:34.705Z,68.72
2023-01-18T02:55:34.893Z,68.41
2023-01-18T02:56:35.083Z,68.30
2023-01-18T02:57:35.240Z,68.10
2023-01-18T02:58:35.422Z,68.20
2023-01-18T02:59:35.611Z,67.99
2023-01-18T03:00:35.802Z,68.10
2023-01-18T03:01:36.073Z,68.20
2023-01-18T03:02:36.211Z,68.41
2023-01-18T03:03:36.334Z,68.20
2023-01-18T03:04:36.533Z,68.30
2023-01-18T03:05:36.692Z,68.10
2023-01-18T03:06:36.882Z,68.13
2023-01-18T03:07:37.025Z,68.02
2023-01-18T03:08:37.186Z,67.89
2023-01-18T03:09:37.372Z,67.92
2023-01-18T03:10:37.581Z,68.23
2023-01-18T03:11:37.746Z,68.02
2023-01-18T03:12:37.939Z,68.02
2023-01-18T03:13:38.118Z,68.02
2023-01-18T03:14:38.301Z,68.23
2023-01-18T03:15:38.573Z,68.44
2023-01-18T03:16:38.679Z,68.96
2023-01-18T03:17:38.821Z,68.75
2023-01-18T03:18:39.015Z,69.17
2023-01-18T03:19:39.236Z,68.54
2023-01-18T03:20:39.375Z,68.33
2023-01-18T03:21:39.581Z,68.33
2023-01-18T03:22:39.742Z,68.51
2023-01-18T03:23:40.061Z,68.93
2023-01-18T03:24:40.103Z,69.13
2023-01-18T03:25:40.297Z,68.96
2023-01-18T03:26:40.527Z,68.82
2023-01-18T03:27:40.747Z,68.51
2023-01-18T03:28:40.829Z,68.62
2023-01-18T03:29:40.982Z,68.93
2023-01-18T03:30:41.182Z,68.62
2023-01-18T03:31:41.359Z,68.51
2023-01-18T03:32:41.522Z,68.62
2023-01-18T03:33:41.696Z,68.41
2023-01-18T03:34:41.889Z,68.51
2023-01-18T03:35:42.048Z,68.30
2023-01-18T03:36:42.249Z,68.51
2023-01-18T03:37:42.429Z,68.51
2023-01-18T03:38:42.558Z,68.51
2023-01-18T03:39:42.754Z,68.41
2023-01-18T03:40:42.961Z,68.72
2023-01-18T03:41:43.114Z,69.03
2023-01-18T03:42:43.298Z,68.72
2023-01-18T03:43:43.508Z,68.41
2023-01-18T03:44:43.667Z,68.30
2023-01-18T03:45:43.839Z,68.62
2023-01-18T03:46:44.017Z,68.93
2023-01-18T03:47:44.161Z,68.82
2023-01-18T03:48:44.340Z,68.72
2023-01-18T03:49:44.478Z,68.93
2023-01-18T03:50:44.693Z,68.82
2023-01-18T03:51:44.847Z,68.62
2023-01-18T03:52:45.007Z,68.69
2023-01-18T03:53:45.197Z,68.38
2023-01-18T03:54:45.354Z,68.79
2023-01-18T03:55:45.556Z,68.59
2023-01-18T03:56:45.744Z,68.17
2023-01-18T03:57:45.898Z,68.38
2023-01-18T03:58:46.088Z,68.79
2023-01-18T03:59:46.263Z,68.59
2023-01-18T04:00:46.512Z,68.48
2023-01-18T04:01:46.671Z,68.27
2023-01-18T04:02:46.849Z,68.48
2023-01-18T04:03:46.953Z,68.48
2023-01-18T04:04:47.142Z,68.17
2023-01-18T04:05:47.323Z,68.17
2023-01-18T04:06:47.533Z,68.38
2023-01-18T04:07:47.690Z,68.27
2023-01-18T04:08:47.904Z,68.38
2023-01-18T04:09:48.088Z,68.07
2023-01-18T04:10:48.243Z,68.07
2023-01-18T04:11:48.465Z,68.07
2023-01-18T04:12:48.562Z,68.17
2023-01-18T04:13:48.721Z,67.96
2023-01-18T04:14:48.908Z,68.30
2023-01-18T04:15:49.104Z,68.27
2023-01-18T04:16:49.296Z,68.51
2023-01-18T04:17:49.462Z,68.30
2023-01-18T04:18:49.624Z,68.20
2023-01-18T04:19:49.804Z,68.41
2023-01-18T04:20:50.005Z,68.62
2023-01-18T04:21:50.220Z,68.41
2023-01-18T04:22:50.370Z,68.62
2023-01-18T04:23:50.503Z,68.38
2023-01-18T04:24:50.706Z,69.10
2023-01-18T04:25:50.849Z,68.69
2023-01-18T04:26:51.063Z,68.79
2023-01-18T04:27:51.182Z,69.21
2023-01-18T04:28:51.379Z,69.00
2023-01-18T04:29:51.533Z,69.31
2023-01-18T04:30:51.741Z,69.00
2023-01-18T04:31:51.893Z,68.79
2023-01-18T04:32:52.111Z,68.79
2023-01-18T04:33:52.260Z,68.48
2023-01-18T04:34:52.459Z,68.79
2023-01-18T04:35:52.648Z,68.48
2023-01-18T04:36:52.809Z,68.27
2023-01-18T04:37:52.979Z,68.59
2023-01-18T04:38:53.149Z,68.90
2023-01-18T04:39:53.300Z,68.79
2023-01-18T04:40:53.490Z,68.69
2023-01-18T04:41:54.011Z,68.38
2023-01-18T04:42:53.869Z,68.27
2023-01-18T04:43:54.023Z,68.27
2023-01-18T04:44:54.211Z,68.38
2023-01-18T04:45:54.375Z,68.69
2023-01-18T04:46:54.617Z,68.59
2023-01-18T04:47:54.737Z,68.69
2023-01-18T04:48:54.928Z,68.69
2023-01-18T04:49:55.108Z,68.48
2023-01-18T04:50:55.329Z,68.59
2023-01-18T04:51:55.469Z,68.27
2023-01-18T04:52:55.859Z,68.07
2023-01-18T04:53:55.849Z,67.96
2023-01-18T04:54:56.030Z,68.07
2023-01-18T04:55:56.218Z,68.17
2023-01-18T04:56:56.406Z,68.07
2023-01-18T04:57:56.573Z,68.07
2023-01-18T04:58:56.718Z,67.96
2023-01-18T04:59:56.921Z,67.96
2023-01-18T05:00:57.191Z,67.86
2023-01-18T05:01:57.313Z,67.96
2023-01-18T05:02:57.818Z,67.76
2023-01-18T05:03:57.567Z,67.65
2023-01-18T05:04:57.775Z,67.55
2023-01-18T05:05:57.960Z,67.55
2023-01-18T05:06:58.114Z,67.55
2023-01-18T05:07:58.300Z,67.65
2023-01-18T05:08:58.477Z,67.76
2023-01-18T05:09:58.624Z,67.65
2023-01-18T05:10:58.834Z,67.76
2023-01-18T05:11:58.986Z,67.61
2023-01-18T05:12:59.629Z,67.61
2023-01-18T05:13:59.369Z,67.51
2023-01-18T05:14:59.535Z,67.61
2023-01-18T05:15:59.769Z,67.61
2023-01-18T05:16:59.906Z,67.61
2023-01-18T05:18:00.075Z,67.61
2023-01-18T05:19:00.242Z,67.61
2023-01-18T05:20:00.433Z,67.51
2023-01-18T05:21:00.581Z,67.41
2023-01-18T05:22:00.786Z,67.41
2023-01-18T05:23:01.230Z,67.51
2023-01-18T05:24:01.127Z,67.30
2023-01-18T05:25:01.312Z,67.20
2023-01-18T05:26:01.483Z,67.20
2023-01-18T05:27:01.654Z,67.20
2023-01-18T05:28:01.824Z,67.20
2023-01-18T05:29:01.993Z,67.10
2023-01-18T05:30:02.165Z,67.27
2023-01-18T05:31:02.335Z,67.27
2023-01-18T05:32:02.851Z,67.27
2023-01-18T05:33:02.689Z,67.07
2023-01-18T05:34:02.829Z,67.07
2023-01-18T05:35:03.005Z,66.96
2023-01-18T05:36:03.179Z,67.07
2023-01-18T05:37:03.360Z,67.17
2023-01-18T05:38:03.538Z,67.07
2023-01-18T05:39:03.702Z,66.96
2023-01-18T05:40:03.849Z,67.07
2023-01-18T05:41:04.064Z,67.07
2023-01-18T05:42:04.209Z,67.17
2023-01-18T05:43:04.371Z,67.38
2023-01-18T05:44:04.532Z,67.38
2023-01-18T05:45:04.699Z,67.27
2023-01-18T05:46:04.886Z,67.27
2023-01-18T05:47:05.059Z,67.14
2023-01-18T05:48:05.228Z,67.03
2023-01-18T05:49:05.397Z,66.93
2023-01-18T05:50:05.546Z,67.14
2023-01-18T05:51:05.768Z,67.14
2023-01-18T05:52:05.919Z,67.03
2023-01-18T05:53:06.110Z,67.03
2023-01-18T05:54:06.301Z,66.93
2023-01-18T05:55:06.467Z,66.83
2023-01-18T05:56:06.704Z,66.93
2023-01-18T05:57:06.814Z,66.83
2023-01-18T05:58:07.009Z,66.62
2023-01-18T05:59:07.170Z,66.83
2023-01-18T06:00:07.314Z,66.72
2023-01-18T06:01:07.701Z,66.72
2023-01-18T06:02:07.728Z,66.83
2023-01-18T06:03:10.131Z,66.72
2023-01-18T06:04:08.088Z,66.93
2023-01-18T06:05:08.205Z,66.93
2023-01-18T06:06:08.385Z,66.83
2023-01-18T06:07:08.586Z,66.72
2023-01-18T06:08:08.745Z,66.72
2023-01-18T06:09:08.948Z,66.80
2023-01-18T06:10:09.093Z,66.80
2023-01-18T06:11:09.296Z,66.80
2023-01-18T06:12:09.456Z,66.69
2023-01-18T06:13:09.615Z,66.59
2023-01-18T06:14:09.819Z,66.59
2023-01-18T06:15:09.987Z,66.69
2023-01-18T06:16:10.184Z,66.69
2023-01-18T06:17:10.290Z,66.80
2023-01-18T06:18:10.465Z,66.90
2023-01-18T06:19:10.674Z,67.00
2023-01-18T06:20:10.826Z,67.00
2023-01-18T06:21:11.058Z,66.90
2023-01-18T06:22:11.196Z,66.90
2023-01-18T06:23:11.359Z,66.69
2023-01-18T06:24:11.524Z,66.69
2023-01-18T06:25:11.688Z,66.80
2023-01-18T06:26:11.892Z,66.80
2023-01-18T06:27:12.055Z,66.59
2023-01-18T06:28:12.214Z,66.80
2023-01-18T06:29:12.378Z,67.00
2023-01-18T06:30:12.537Z,66.69
2023-01-18T06:31:12.718Z,66.90
2023-01-18T06:32:12.971Z,66.80
2023-01-18T06:33:13.083Z,66.80
2023-01-18T06:34:13.263Z,66.59
2023-01-18T06:35:13.456Z,66.59
2023-01-18T06:36:13.654Z,66.56
2023-01-18T06:37:13.836Z,66.56
2023-01-18T06:38:14.018Z,66.56
2023-01-18T06:39:14.169Z,66.25
2023-01-18T06:40:14.340Z,66.35
2023-01-18T06:41:14.531Z,66.35
2023-01-18T06:42:14.727Z,66.15
2023-01-18T06:43:14.875Z,66.15
2023-01-18T06:44:15.035Z,66.15
2023-01-18T06:45:15.222Z,66.15
2023-01-18T06:46:15.491Z,66.18
2023-01-18T06:47:15.561Z,66.28
2023-01-18T06:48:15.720Z,66.49
2023-01-18T06:49:15.910Z,66.49
2023-01-18T06:50:16.101Z,66.59
2023-01-18T06:51:16.291Z,66.90
2023-01-18T06:52:16.468Z,66.80
2023-01-18T06:53:16.644Z,66.59
2023-01-18T06:54:16.792Z,66.49
2023-01-18T06:55:16.948Z,66.49
2023-01-18T06:56:17.114Z,66.59
2023-01-18T06:57:17.309Z,66.59
2023-01-18T06:58:17.449Z,66.69
2023-01-18T06:59:17.638Z,66.69
2023-01-18T07:00:17.824Z,66.62
2023-01-18T07:01:18.101Z,66.83
2023-01-18T07:02:18.174Z,66.93
2023-01-18T07:03:18.327Z,66.93
2023-01-18T07:04:18.537Z,67.14
2023-01-18T07:05:18.679Z,67.14
2023-01-18T07:06:18.871Z,66.93
2023-01-18T07:07:19.031Z,66.62
2023-01-18T07:08:19.198Z,66.96
2023-01-18T07:09:19.387Z,67.07
2023-01-18T07:10:19.564Z,67.27
2023-01-18T07:11:19.742Z,67.38
2023-01-18T07:12:19.930Z,67.48
2023-01-18T07:13:20.107Z,67.17
2023-01-18T07:14:20.279Z,67.27
2023-01-18T07:15:22.289Z,66.96
2023-01-18T07:16:20.653Z,66.96
2023-01-18T07:17:20.825Z,67.27
2023-01-18T07:18:20.977Z,67.38
2023-01-18T07:19:21.146Z,67.27
2023-01-18T07:20:21.317Z,67.07
2023-01-18T07:21:21.503Z,67.17
2023-01-18T07:22:21.637Z,67.27
2023-01-18T07:23:21.836Z,67.38
2023-01-18T07:24:21.986Z,67.58
2023-01-18T07:25:22.190Z,66.14
2023-01-18T07:26:22.358Z,66.44
2023-01-18T07:27:22.536Z,66.86
2023-01-18T07:28:22.730Z,66.96
2023-01-18T07:29:22.920Z,66.55
2023-01-18T07:30:23.105Z,66.65
2023-01-18T07:31:23.249Z,66.65
2023-01-18T07:32:23.443Z,66.35
2023-01-18T07:33:23.585Z,65.72
2023-01-18T07:34:23.791Z,65.83
2023-01-18T07:35:24.159Z,66.24
2023-01-18T07:36:24.126Z,66.55
2023-01-18T07:37:24.317Z,65.72
2023-01-18T07:38:24.451Z,66.35
2023-01-18T07:39:24.624Z,65.93
2023-01-18T07:40:24.805Z,66.24
2023-01-18T07:41:24.983Z,65.10
2023-01-18T07:42:25.186Z,65.20
2023-01-18T07:43:25.364Z,64.89
2023-01-18T07:44:25.543Z,65.00
2023-01-18T07:45:25.734Z,65.31
2023-01-18T07:46:25.984Z,66.00
2023-01-18T07:47:26.083Z,66.21
2023-01-18T07:48:26.239Z,65.07
2023-01-18T07:49:26.400Z,65.17
2023-01-18T07:50:26.604Z,64.97
2023-01-18T07:51:26.731Z,65.17
2023-01-18T07:52:26.930Z,64.73
2023-01-18T07:53:27.100Z,64.00
2023-01-18T07:54:27.292Z,64.42
2023-01-18T07:55:27.472Z,64.42
2023-01-18T07:56:27.678Z,63.90
2023-01-18T07:57:27.842Z,64.31
2023-01-18T07:58:27.991Z,64.42
2023-01-18T07:59:28.161Z,64.42
2023-01-18T08:00:28.318Z,63.79
2023-01-18T08:01:28.612Z,63.79
2023-01-18T08:02:28.712Z,63.79
2023-01-18T08:03:28.832Z,63.90
2023-01-18T08:04:29.011Z,63.69
2023-01-18T08:05:29.190Z,63.38
2023-01-18T08:06:29.370Z,63.90
2023-01-18T08:07:29.560Z,63.56
2023-01-18T08:08:29.702Z,63.35
2023-01-18T08:09:29.872Z,63.15
2023-01-18T08:10:30.073Z,63.35
2023-01-18T08:11:30.210Z,63.15
2023-01-18T08:12:30.403Z,62.84
2023-01-18T08:13:30.600Z,63.32
2023-01-18T08:14:30.752Z,63.12
2023-01-18T08:15:30.987Z,63.22
2023-01-18T08:16:31.111Z,62.98
2023-01-18T08:17:31.291Z,62.46
2023-01-18T08:18:31.469Z,62.37
2023-01-18T08:19:31.638Z,62.57
2023-01-18T08:20:31.828Z,62.26
2023-01-18T08:21:31.994Z,62.75
2023-01-18T08:22:32.180Z,62.23
2023-01-18T08:23:32.349Z,61.51
2023-01-18T08:24:32.526Z,61.40
2023-01-18T08:25:32.690Z,61.71
2023-01-18T08:26:32.877Z,61.20
2023-01-18T08:27:33.058Z,61.17
2023-01-18T08:28:33.208Z,61.07
2023-01-18T08:29:33.393Z,60.65
2023-01-18T08:30:33.547Z,60.55
2023-01-18T08:31:33.738Z,60.93
2023-01-18T08:32:33.958Z,61.45
2023-01-18T08:33:34.095Z,61.55
2023-01-18T08:34:34.198Z,61.87
2023-01-18T08:35:34.357Z,60.52
2023-01-18T08:36:34.535Z,60.18
2023-01-18T08:37:34.718Z,60.80
2023-01-18T08:38:34.883Z,61.22
2023-01-18T08:39:35.116Z,60.49
2023-01-18T08:40:35.242Z,60.60
2023-01-18T08:41:35.416Z,60.47
2023-01-18T08:42:35.596Z,60.16
2023-01-18T08:43:35.784Z,60.26
2023-01-18T08:44:35.985Z,60.16
2023-01-18T08:45:36.170Z,59.84
2023-01-18T08:46:36.402Z,60.47
2023-01-18T08:47:36.548Z,60.05
2023-01-18T08:48:36.680Z,59.53
2023-01-18T08:49:36.858Z,58.81
2023-01-18T08:50:37.062Z,59.61
2023-01-18T08:51:37.186Z,60.02
2023-01-18T08:52:37.365Z,59.51
2023-01-18T08:53:37.544Z,59.61
2023-01-18T08:54:37.739Z,59.41
2023-01-18T08:55:37.931Z,58.69
2023-01-18T08:56:38.081Z,58.40
2023-01-18T08:57:38.261Z,59.02
2023-01-18T08:58:38.436Z,59.33
2023-01-18T08:59:38.606Z,59.84
2023-01-18T09:00:38.796Z,59.53
2023-01-18T09:01:39.046Z,59.12
2023-01-18T09:02:39.175Z,59.64
2023-01-18T09:03:39.312Z,60.05
2023-01-18T09:04:39.466Z,58.71
2023-01-18T09:05:39.674Z,59.74
2023-01-18T09:06:39.805Z,59.53
2023-01-18T09:07:39.981Z,58.30
2023-01-18T09:08:40.171Z,59.02
2023-01-18T09:09:40.330Z,58.40
2023-01-18T09:10:40.529Z,59.12
2023-01-18T09:11:40.682Z,59.84
2023-01-18T09:12:40.885Z,60.05
2023-01-18T09:13:54.509Z,58.92
2023-01-18T09:14:42.243Z,58.92
2023-01-18T09:15:41.412Z,59.64
2023-01-18T09:16:41.597Z,59.33
2023-01-18T09:17:41.760Z,58.71
2023-01-18T09:18:41.950Z,58.40
2023-01-18T09:19:42.123Z,58.33
2023-01-18T09:20:42.312Z,58.43
2023-01-18T09:21:42.482Z,59.02
2023-01-18T09:22:42.670Z,58.71
2023-01-18T09:23:42.844Z,58.71
2023-01-18T09:24:43.021Z,59.02
2023-01-18T09:25:43.281Z,59.12
2023-01-18T09:26:45.179Z,59.33
2023-01-18T09:27:43.531Z,59.74
2023-01-18T09:28:43.710Z,59.12
2023-01-18T09:29:43.893Z,58.99
2023-01-18T09:30:44.121Z,58.69
2023-01-18T09:31:44.328Z,58.58
2023-01-18T09:32:44.414Z,58.06
2023-01-18T09:33:52.807Z,58.99
2023-01-18T09:34:45.758Z,57.76
2023-01-18T09:35:44.930Z,57.34
2023-01-18T09:36:45.122Z,57.76
2023-01-18T09:37:45.267Z,58.06
2023-01-18T09:38:45.460Z,57.24
2023-01-18T09:39:51.692Z,57.24
2023-01-18T09:40:46.857Z,58.06
2023-01-18T09:41:45.928Z,57.86
2023-01-18T09:42:46.106Z,58.17
2023-01-18T09:43:46.300Z,58.14
2023-01-18T09:44:46.466Z,58.76
2023-01-18T09:45:46.628Z,58.45
2023-01-18T09:46:46.888Z,58.97
2023-01-18T09:47:46.998Z,58.86
2023-01-18T09:48:47.187Z,58.86
2023-01-18T09:49:47.348Z,58.14
2023-01-18T09:50:47.530Z,58.63
2023-01-18T09:51:47.697Z,58.63
2023-01-18T09:52:47.915Z,58.01
2023-01-18T09:53:48.075Z,57.81
2023-01-18T09:54:48.264Z,57.39
2023-01-18T09:55:48.433Z,56.77
2023-01-18T09:56:48.600Z,57.50
2023-01-18T09:57:48.766Z,56.57
2023-01-18T09:58:48.960Z,56.46
2023-01-18T09:59:49.146Z,56.36
2023-01-18T10:00:49.428Z,57.06
2023-01-18T10:01:49.775Z,57.16
2023-01-18T10:02:49.789Z,57.26
2023-01-18T10:03:49.875Z,57.06
2023-01-18T10:04:50.101Z,56.54
2023-01-18T10:05:50.219Z,57.16
2023-01-18T10:06:50.399Z,56.82
2023-01-18T10:07:50.582Z,56.41
2023-01-18T10:08:50.767Z,56.31
2023-01-18T10:09:50.922Z,56.00
2023-01-18T10:10:51.107Z,56.31
2023-01-18T10:11:51.286Z,56.21
2023-01-18T10:12:51.448Z,55.07
2023-01-18T10:13:51.633Z,55.18
2023-01-18T10:14:51.786Z,54.77
2023-01-18T10:15:52.004Z,55.59
2023-01-18T10:16:54.707Z,55.46
2023-01-18T10:17:52.286Z,54.33
2023-01-18T10:18:52.465Z,54.85
2023-01-18T10:19:52.639Z,55.15
2023-01-18T10:20:52.826Z,54.43
2023-01-18T10:21:52.995Z,54.64
2023-01-18T10:22:53.165Z,55.36
2023-01-18T10:23:53.334Z,55.46
2023-01-18T10:24:53.514Z,55.36
2023-01-18T10:25:53.704Z,55.77
2023-01-18T10:26:53.885Z,55.95
2023-01-18T10:27:54.030Z,55.43
2023-01-18T10:28:54.203Z,55.95
2023-01-18T10:29:54.374Z,55.64
2023-01-18T10:30:54.572Z,54.30
2023-01-18T10:31:54.737Z,54.20
2023-01-18T10:32:54.884Z,54.00
2023-01-18T10:33:55.064Z,54.20
2023-01-18T10:34:55.254Z,54.30
2023-01-18T10:35:55.422Z,55.13
2023-01-18T10:36:55.593Z,54.51
2023-01-18T10:37:55.767Z,54.30
2023-01-18T10:38:55.963Z,54.28
2023-01-18T10:39:56.134Z,53.79
2023-01-18T10:40:56.315Z,53.77
2023-01-18T10:41:56.483Z,53.79
2023-01-18T10:42:57.133Z,54.20
2023-01-18T10:43:56.892Z,54.10
2023-01-18T10:44:57.005Z,53.89
2023-01-18T10:45:57.232Z,54.30
2023-01-18T10:46:57.340Z,54.20
2023-01-18T10:47:57.501Z,53.89
2023-01-18T10:48:57.701Z,53.58
2023-01-18T10:49:57.869Z,53.92
2023-01-18T10:50:58.053Z,54.13
2023-01-18T10:51:58.222Z,54.13
2023-01-18T10:52:58.755Z,54.64
2023-01-18T10:53:58.573Z,54.64
2023-01-18T10:54:58.751Z,54.94
2023-01-18T10:55:58.940Z,54.64
2023-01-18T10:56:59.124Z,54.22
2023-01-18T10:57:59.641Z,54.74
2023-01-18T10:58:59.460Z,54.22
2023-01-18T10:59:59.629Z,54.53
2023-01-18T11:00:59.882Z,54.53
2023-01-18T11:02:00.248Z,55.15
2023-01-18T11:03:00.609Z,55.26
2023-01-18T11:04:00.331Z,54.85
2023-01-18T11:05:00.523Z,54.25
2023-01-18T11:06:00.689Z,53.94
2023-01-18T11:07:00.868Z,54.25
2023-01-18T11:08:02.686Z,54.77
2023-01-18T11:09:02.170Z,53.63
2023-01-18T11:10:01.390Z,54.56
2023-01-18T11:11:01.579Z,55.18
2023-01-18T11:12:01.757Z,54.25
2023-01-18T11:13:02.033Z,54.35
2023-01-18T11:14:02.105Z,54.97
2023-01-18T11:15:02.387Z,55.28
2023-01-18T11:16:02.496Z,55.28
2023-01-18T11:17:02.627Z,54.77
2023-01-18T11:18:02.775Z,55.38
2023-01-18T11:19:03.001Z,55.18
2023-01-18T11:20:03.119Z,55.59
2023-01-18T11:21:03.308Z,55.49
2023-01-18T11:22:03.487Z,55.38
2023-01-18T11:23:03.695Z,55.80
2023-01-18T11:24:03.837Z,54.35
2023-01-18T11:25:03.996Z,54.05
2023-01-18T11:26:04.183Z,54.46
2023-01-18T11:27:04.383Z,55.07
2023-01-18T11:28:04.513Z,54.87
2023-01-18T11:29:04.705Z,55.07
2023-01-18T11:30:04.868Z,55.18
2023-01-18T11:31:05.068Z,55.38
2023-01-18T11:32:05.414Z,55.07
2023-01-18T11:33:05.417Z,55.69
2023-01-18T11:34:05.644Z,55.49
2023-01-18T11:35:05.777Z,55.18
2023-01-18T11:36:05.954Z,55.07
2023-01-18T11:37:06.127Z,55.28
2023-01-18T11:38:06.306Z,55.80
2023-01-18T11:39:06.505Z,55.49
2023-01-18T11:40:06.676Z,55.59
2023-01-18T11:41:06.875Z,55.59
2023-01-18T11:42:07.040Z,55.80
2023-01-18T11:43:07.194Z,55.72
2023-01-18T11:44:07.386Z,55.10
2023-01-18T11:45:07.569Z,55.72
2023-01-18T11:46:07.768Z,55.72
2023-01-18T11:47:07.910Z,55.21
2023-01-18T11:48:08.078Z,55.82
2023-01-18T11:49:08.313Z,55.85
2023-01-18T11:50:21.252Z,56.36
2023-01-18T11:51:09.620Z,56.26
2023-01-18T11:52:08.767Z,56.36
2023-01-18T11:53:08.937Z,56.26
2023-01-18T11:54:09.115Z,56.65
2023-01-18T11:55:09.301Z,56.65
2023-01-18T11:56:09.496Z,56.95
2023-01-18T11:57:09.626Z,57.26
2023-01-18T11:58:09.841Z,57.16
2023-01-18T11:59:09.996Z,57.16
2023-01-18T12:00:10.173Z,57.57
2023-01-18T12:01:10.444Z,57.37
2023-01-18T12:02:10.589Z,57.26
2023-01-18T12:03:10.764Z,56.75
2023-01-18T12:04:10.910Z,57.06
2023-01-18T12:05:11.075Z,57.37
2023-01-18T12:06:11.254Z,57.37
2023-01-18T12:07:11.423Z,57.37
2023-01-18T12:08:11.602Z,57.88
2023-01-18T12:09:11.793Z,57.57
2023-01-18T12:10:11.963Z,57.65
2023-01-18T12:11:12.149Z,57.24
2023-01-18T12:12:19.040Z,57.14
2023-01-18T12:13:13.485Z,56.62
2023-01-18T12:14:12.690Z,56.31
2023-01-18T12:15:12.837Z,56.52
2023-01-18T12:16:13.133Z,56.62
2023-01-18T12:17:13.195Z,56.93
2023-01-18T12:18:14.110Z,57.24
2023-01-18T12:19:13.531Z,57.54
2023-01-18T12:20:13.702Z,57.14
2023-01-18T12:21:13.884Z,56.90
2023-01-18T12:22:14.063Z,56.70
2023-01-18T12:23:14.243Z,55.98
2023-01-18T12:24:14.432Z,55.80
2023-01-18T12:25:14.592Z,56.59
2023-01-18T12:26:14.753Z,56.59
2023-01-18T12:27:14.947Z,56.49
2023-01-18T12:28:15.092Z,56.18
2023-01-18T12:29:15.284Z,56.29
2023-01-18T12:30:15.479Z,56.38
2023-01-18T12:31:15.639Z,56.49
2023-01-18T12:32:15.802Z,55.87
2023-01-18T12:33:15.980Z,56.08
2023-01-18T12:34:16.181Z,55.36
2023-01-18T12:35:24.003Z,55.66
2023-01-18T12:36:17.521Z,56.59
2023-01-18T12:37:16.720Z,57.01
2023-01-18T12:38:16.872Z,57.01
2023-01-18T12:39:17.054Z,57.10
2023-01-18T12:40:17.214Z,56.90
2023-01-18T12:41:17.393Z,56.80
2023-01-18T12:42:17.571Z,56.70
2023-01-18T12:43:17.709Z,56.80
2023-01-18T12:44:17.892Z,57.10
2023-01-18T12:45:18.072Z,57.31
2023-01-18T12:46:18.335Z,57.21
2023-01-18T12:47:18.424Z,56.80
2023-01-18T12:48:18.600Z,57.10
2023-01-18T12:49:18.838Z,57.01
2023-01-18T12:50:18.959Z,57.31
2023-01-18T12:51:19.108Z,57.42
2023-01-18T12:52:19.643Z,57.42
2023-01-18T12:53:19.450Z,57.21
2023-01-18T12:54:19.641Z,57.21